Time;durP1;ratioP1;P1;durP2;ratioP2;P2;SDS_P1;SDS_P2;PMS_P1;PMS_P2;Temp;Humidity;BMP_temperature;BMP_pressure;BME280_temperature;BME280_humidity;BME280_pressure;Samples;Min_cycle;Max_cycle;Signal;HPM_P1;HPM_P2
2021/07/06 00:00:55;;;;;;;2.05;1.27;;;15.90;64.00;;;;;;5091337;28;20127;-54
2021/07/06 00:03:29;;;;;;;4.90;1.20;;;16.00;65.00;;;;;;5091858;28;20024;-52
2021/07/06 00:05:56;;;;;;;4.93;1.33;;;16.20;64.30;;;;;;5091571;28;20045;-51
2021/07/06 00:08:24;;;;;;;3.67;1.15;;;16.20;62.40;;;;;;5091764;28;20035;-56
2021/07/06 00:10:51;;;;;;;1.98;1.00;;;16.30;63.30;;;;;;5091905;28;20069;-52
2021/07/06 00:13:18;;;;;;;15.30;3.90;;;16.40;63.50;;;;;;5091742;28;20028;-55
2021/07/06 00:15:48;;;;;;;1.92;1.10;;;16.50;62.70;;;;;;5091542;28;20789;-54
2021/07/06 00:18:15;;;;;;;9.90;2.35;;;16.60;60.60;;;;;;5104517;28;20055;-57
2021/07/06 00:20:43;;;;;;;4.85;1.52;;;16.60;61.90;;;;;;5111925;28;20043;-54
2021/07/06 00:23:10;;;;;;;7.47;1.67;;;16.80;60.60;;;;;;5112216;28;20516;-54
2021/07/06 00:25:37;;;;;;;2.72;1.08;;;16.80;60.70;;;;;;5111899;28;20046;-59
2021/07/06 00:28:08;;;;;;;6.38;1.55;;;16.90;60.70;;;;;;5111643;28;20210;-57
2021/07/06 00:30:35;;;;;;;2.38;0.95;;;17.10;60.90;;;;;;5111818;28;20535;-58
2021/07/06 00:33:03;;;;;;;4.43;1.23;;;17.20;59.70;;;;;;5108865;28;20398;-49
2021/07/06 00:35:30;;;;;;;9.50;1.30;;;17.40;60.10;;;;;;5110745;28;20088;-56
2021/07/06 00:37:58;;;;;;;2.58;1.05;;;17.70;59.90;;;;;;5111073;28;20028;-54
2021/07/06 00:40:25;;;;;;;8.77;1.77;;;17.70;61.00;;;;;;5111434;28;20446;-60
2021/07/06 00:42:59;;;;;;;2.05;1.02;;;17.90;59.10;;;;;;5111981;28;20030;-55
2021/07/06 00:45:27;;;;;;;2.10;1.35;;;18.10;58.70;;;;;;5112030;28;20447;-58
2021/07/06 00:47:57;;;;;;;4.05;1.08;;;18.20;58.50;;;;;;5109639;28;20036;-59
2021/07/06 00:50:25;;;;;;;3.65;0.90;;;18.30;58.90;;;;;;5111699;28;20114;-59
2021/07/06 00:52:53;;;;;;;8.77;1.38;;;18.50;56.90;;;;;;5112124;28;20513;-58
2021/07/06 00:55:21;;;;;;;2.40;0.80;;;18.60;56.10;;;;;;5111130;28;20085;-55
2021/07/06 00:57:49;;;;;;;3.92;0.90;;;18.60;58.10;;;;;;5110133;28;20027;-61
2021/07/06 01:00:20;;;;;;;2.10;0.70;;;18.70;58.50;;;;;;5111204;28;20123;-54
2021/07/06 01:02:50;;;;;;;1.15;0.70;;;18.80;55.90;;;;;;5111721;28;20032;-59
2021/07/06 01:05:21;;;;;;;1.88;0.90;;;18.80;57.90;;;;;;5111109;28;20139;-56
2021/07/06 01:07:49;;;;;;;1.55;0.68;;;18.90;56.30;;;;;;5111117;27;20030;-52
2021/07/06 01:10:17;;;;;;;1.65;0.90;;;19.00;56.80;;;;;;5111465;28;20023;-56
2021/07/06 01:12:46;;;;;;;1.33;1.00;;;19.10;55.50;;;;;;5111343;28;20073;-57
2021/07/06 01:15:29;;;;;;;2.45;0.73;;;19.20;55.50;;;;;;5111027;28;20122;-58
2021/07/06 01:18:05;;;;;;;2.47;0.93;;;19.20;56.70;;;;;;5110747;28;20031;-58
2021/07/06 01:20:34;;;;;;;5.80;1.52;;;19.40;55.90;;;;;;5111095;28;20024;-56
2021/07/06 01:23:03;;;;;;;6.45;1.48;;;19.50;56.70;;;;;;5110744;28;20081;-54
2021/07/06 01:25:31;;;;;;;2.03;1.17;;;19.60;55.20;;;;;;5110733;28;20109;-58
2021/07/06 01:27:58;;;;;;;3.17;0.95;;;19.60;56.80;;;;;;5110375;28;20110;-57
2021/07/06 01:30:26;;;;;;;3.20;0.60;;;19.60;53.90;;;;;;5109221;28;20477;-59
2021/07/06 01:32:53;;;;;;;2.15;0.80;;;19.70;56.30;;;;;;5110662;28;20023;-56
2021/07/06 01:35:20;;;;;;;2.70;0.95;;;19.90;54.70;;;;;;5110500;28;20047;-57
2021/07/06 01:37:55;;;;;;;0.98;0.63;;;19.80;55.30;;;;;;5110498;28;20494;-57
2021/07/06 01:40:24;;;;;;;1.88;0.90;;;19.80;55.80;;;;;;5110732;28;20027;-57
2021/07/06 01:42:53;;;;;;;6.13;1.38;;;19.90;55.60;;;;;;5110848;27;20055;-59
2021/07/06 01:45:22;;;;;;;4.28;1.02;;;20.00;53.80;;;;;;5110227;28;20143;-54
2021/07/06 01:47:55;;;;;;;3.35;1.20;;;19.90;55.80;;;;;;5110241;28;20076;-56
2021/07/06 01:50:28;;;;;;;14.43;2.38;;;20.00;53.40;;;;;;5110356;28;20549;-54
2021/07/06 01:52:58;;;;;;;4.93;1.17;;;20.00;55.50;;;;;;5110356;28;20023;-58
2021/07/06 01:55:38;;;;;;;1.33;0.70;;;20.10;54.50;;;;;;5110366;28;20019;-58
2021/07/06 01:58:08;;;;;;;1.65;0.70;;;20.00;55.60;;;;;;5110004;28;20055;-58
2021/07/06 02:00:38;;;;;;;1.33;0.73;;;20.10;54.70;;;;;;5110231;28;20114;-59
2021/07/06 02:03:07;;;;;;;7.07;0.98;;;20.20;54.30;;;;;;5110035;28;20508;-58
2021/07/06 02:05:41;;;;;;;7.85;1.15;;;20.20;54.40;;;;;;5109790;28;20063;-57
2021/07/06 02:08:11;;;;;;;5.68;1.20;;;20.30;54.00;;;;;;5109636;28;20100;-56
2021/07/06 02:10:39;;;;;;;5.43;1.40;;;20.30;55.00;;;;;;5109795;28;20420;-58
2021/07/06 02:13:20;;;;;;;1.52;0.80;;;20.30;54.00;;;;;;5109584;28;20024;-58
2021/07/06 02:15:48;;;;;;;2.22;0.90;;;20.50;54.70;;;;;;5109811;28;20126;-57
2021/07/06 02:18:22;;;;;;;2.50;0.90;;;20.50;54.30;;;;;;5109731;28;20035;-54
2021/07/06 02:20:53;;;;;;;1.70;0.88;;;20.60;52.50;;;;;;5096508;27;20037;-58
2021/07/06 02:23:22;;;;;;;4.65;1.02;;;20.60;53.50;;;;;;5089155;28;20454;-57
2021/07/06 02:25:51;;;;;;;2.50;1.00;;;20.70;53.20;;;;;;5088803;28;20065;-59
2021/07/06 02:28:19;;;;;;;2.10;1.00;;;20.70;54.60;;;;;;5088698;28;20048;-59
2021/07/06 02:30:46;;;;;;;3.75;0.70;;;20.70;54.00;;;;;;5088747;28;20031;-56
2021/07/06 02:33:14;;;;;;;1.45;0.80;;;20.80;54.20;;;;;;5087629;28;20390;-50
2021/07/06 02:35:42;;;;;;;1.15;0.73;;;20.80;52.10;;;;;;5088987;28;20118;-59
2021/07/06 02:38:12;;;;;;;1.42;0.75;;;20.80;54.90;;;;;;5088885;28;20141;-59
2021/07/06 02:40:39;;;;;;;2.67;0.70;;;20.90;53.10;;;;;;5089177;28;20128;-59
2021/07/06 02:43:07;;;;;;;1.38;0.68;;;20.90;53.00;;;;;;5089315;28;20028;-58
2021/07/06 02:45:34;;;;;;;4.47;1.20;;;20.90;53.90;;;;;;5089063;28;20448;-58
2021/07/06 02:48:02;;;;;;;1.55;0.80;;;20.90;54.20;;;;;;5088562;28;20032;-55
2021/07/06 02:50:29;;;;;;;3.22;0.70;;;21.20;52.90;;;;;;5088216;28;20506;-55
2021/07/06 02:52:57;;;;;;;1.45;0.73;;;21.30;54.10;;;;;;5088948;28;20433;-58
2021/07/06 02:55:24;;;;;;;0.88;0.50;;;21.20;54.40;;;;;;5088852;28;20036;-56
2021/07/06 02:57:53;;;;;;;1.27;0.77;;;21.20;54.30;;;;;;5087066;28;20066;-59
2021/07/06 03:00:29;;;;;;;1.67;0.77;;;21.30;52.20;;;;;;5088662;28;20150;-57
2021/07/06 03:03:01;;;;;;;4.28;1.05;;;21.30;52.60;;;;;;5088518;28;20035;-57
2021/07/06 03:05:30;;;;;;;4.90;1.02;;;21.30;53.40;;;;;;5089229;28;20085;-59
2021/07/06 03:08:00;;;;;;;1.92;0.90;;;21.30;53.50;;;;;;5088491;28;20020;-57
2021/07/06 03:10:30;;;;;;;4.50;1.20;;;21.50;52.60;;;;;;5088652;28;20028;-52
2021/07/06 03:12:58;;;;;;;4.70;0.82;;;21.60;53.40;;;;;;5088501;28;20024;-51
2021/07/06 03:15:27;;;;;;;4.60;1.60;;;21.70;52.60;;;;;;5088561;28;20503;-52
2021/07/06 03:17:55;;;;;;;1.65;0.75;;;21.60;52.30;;;;;;5088261;28;20032;-54
2021/07/06 03:20:24;;;;;;;5.18;0.95;;;21.60;53.70;;;;;;5088660;28;20077;-55
2021/07/06 03:22:53;;;;;;;1.05;0.70;;;21.50;53.00;;;;;;5088472;28;20032;-56
2021/07/06 03:25:23;;;;;;;1.38;0.60;;;21.50;54.20;;;;;;5091118;28;20474;-52
2021/07/06 03:27:50;;;;;;;2.75;1.10;;;21.60;52.70;;;;;;5092023;28;20126;-54
2021/07/06 03:30:21;;;;;;;2.20;0.70;;;21.60;53.10;;;;;;5092627;28;20028;-57
2021/07/06 03:32:50;;;;;;;1.42;0.90;;;21.60;53.90;;;;;;5092809;28;20024;-56
2021/07/06 03:35:18;;;;;;;1.33;0.70;;;21.50;53.60;;;;;;5092554;28;20596;-55
2021/07/06 03:37:45;;;;;;;4.35;1.05;;;21.40;53.90;;;;;;5092460;28;20032;-53
2021/07/06 03:40:14;;;;;;;2.65;1.05;;;21.50;53.20;;;;;;5091840;28;20034;-54
2021/07/06 03:42:42;;;;;;;2.33;0.73;;;21.20;54.30;;;;;;5090854;28;20119;-58
2021/07/06 03:45:12;;;;;;;4.47;0.73;;;21.10;54.30;;;;;;5091235;28;20039;-58
2021/07/06 03:47:40;;;;;;;1.40;0.73;;;21.00;54.00;;;;;;5092446;28;20081;-56
2021/07/06 03:50:10;;;;;;;0.90;0.70;;;20.90;54.20;;;;;;5091974;28;20055;-58
2021/07/06 03:52:38;;;;;;;2.42;0.95;;;20.60;55.80;;;;;;5092208;28;20034;-59
2021/07/06 03:55:06;;;;;;;1.27;0.70;;;20.40;55.80;;;;;;5091819;28;20081;-60
2021/07/06 03:57:34;;;;;;;1.70;0.75;;;20.30;56.80;;;;;;5091974;28;20449;-56
2021/07/06 04:00:07;;;;;;;1.05;0.73;;;20.10;56.70;;;;;;5091951;28;20454;-55
2021/07/06 04:02:34;;;;;;;1.52;0.60;;;20.10;57.10;;;;;;5092082;28;20132;-58
2021/07/06 04:05:03;;;;;;;1.55;0.73;;;19.90;57.70;;;;;;5092032;28;20036;-54
2021/07/06 04:07:30;;;;;;;2.72;1.00;;;19.70;57.90;;;;;;5092083;28;20119;-51
2021/07/06 04:09:58;;;;;;;2.50;1.00;;;19.70;57.20;;;;;;5091693;28;20035;-56
2021/07/06 04:12:26;;;;;;;1.52;0.80;;;19.50;58.50;;;;;;5091955;28;20095;-53
2021/07/06 04:14:53;;;;;;;0.57;0.47;;;19.40;58.30;;;;;;5091904;28;20028;-49
2021/07/06 04:17:20;;;;;;;3.28;0.70;;;19.30;59.60;;;;;;5091989;28;20035;-55
2021/07/06 04:19:48;;;;;;;2.17;0.88;;;19.20;59.70;;;;;;5091759;28;20035;-52
2021/07/06 04:22:15;;;;;;;1.67;0.68;;;19.10;59.30;;;;;;5091294;28;20028;-56
2021/07/06 04:24:42;;;;;;;1.50;0.70;;;19.10;60.40;;;;;;5091211;28;20059;-57
2021/07/06 04:27:10;;;;;;;1.67;0.80;;;19.10;59.80;;;;;;5091392;28;20055;-55
2021/07/06 04:29:37;;;;;;;2.15;0.70;;;19.00;59.00;;;;;;5091803;28;20123;-57
2021/07/06 04:32:05;;;;;;;1.85;0.88;;;19.00;60.40;;;;;;5091335;28;20028;-59
2021/07/06 04:34:32;;;;;;;1.33;0.68;;;18.90;59.40;;;;;;5091330;28;20468;-55
2021/07/06 04:36:59;;;;;;;2.13;0.80;;;18.90;60.60;;;;;;5091404;28;20089;-58
2021/07/06 04:39:27;;;;;;;1.55;0.70;;;18.90;58.30;;;;;;5091110;28;20119;-53
2021/07/06 04:41:54;;;;;;;1.20;0.70;;;18.80;61.70;;;;;;5090970;28;20108;-58
2021/07/06 04:44:21;;;;;;;2.42;0.80;;;18.80;61.40;;;;;;5090860;28;20024;-58
2021/07/06 04:46:49;;;;;;;1.65;0.80;;;18.70;59.20;;;;;;5091375;28;20101;-56
2021/07/06 04:49:16;;;;;;;1.38;0.70;;;18.70;62.10;;;;;;5091067;28;20028;-50
2021/07/06 04:51:43;;;;;;;1.20;0.60;;;18.60;62.20;;;;;;5090841;28;20054;-50
2021/07/06 04:54:11;;;;;;;0.85;0.68;;;18.60;62.40;;;;;;5090947;28;20024;-58
2021/07/06 04:56:38;;;;;;;1.40;0.70;;;18.60;62.20;;;;;;5091116;28;20475;-51
2021/07/06 04:59:06;;;;;;;2.42;0.90;;;18.60;61.70;;;;;;5090893;28;20443;-56
2021/07/06 05:01:34;;;;;;;6.22;0.85;;;18.60;61.80;;;;;;5089449;28;20036;-58
2021/07/06 05:04:02;;;;;;;1.38;0.85;;;18.70;61.40;;;;;;5090511;28;20032;-59
2021/07/06 05:06:29;;;;;;;1.50;0.70;;;18.70;61.30;;;;;;5090896;28;20372;-57
2021/07/06 05:08:56;;;;;;;4.35;1.00;;;18.70;61.70;;;;;;5090732;28;20486;-59
2021/07/06 05:11:24;;;;;;;3.08;0.82;;;18.70;60.50;;;;;;5090550;28;20707;-58
2021/07/06 05:13:51;;;;;;;1.58;0.57;;;18.70;61.90;;;;;;5090500;28;20246;-58
2021/07/06 05:16:19;;;;;;;0.88;0.52;;;18.70;62.00;;;;;;5088815;28;20028;-59
2021/07/06 05:18:46;;;;;;;1.75;0.70;;;18.70;62.20;;;;;;5090428;28;20030;-56
2021/07/06 05:21:13;;;;;;;4.00;0.90;;;18.60;60.30;;;;;;5087653;28;20036;-55
2021/07/06 05:23:41;;;;;;;2.45;1.00;;;18.60;58.10;;;;;;5090359;28;20077;-56
2021/07/06 05:26:08;;;;;;;1.65;0.80;;;18.50;58.60;;;;;;5089606;28;20043;-57
2021/07/06 05:28:35;;;;;;;0.95;0.47;;;18.40;60.80;;;;;;5090052;28;20048;-57
2021/07/06 05:31:04;;;;;;;3.53;0.82;;;18.40;62.50;;;;;;5081183;28;20066;-53
2021/07/06 05:33:32;;;;;;;3.13;1.13;;;18.40;60.90;;;;;;5089396;28;20024;-56
2021/07/06 05:35:59;;;;;;;4.82;1.27;;;18.30;59.20;;;;;;5089894;28;20028;-56
2021/07/06 05:38:27;;;;;;;6.35;1.48;;;18.30;60.20;;;;;;5089504;28;20024;-54
2021/07/06 05:40:55;;;;;;;4.13;0.77;;;18.30;57.50;;;;;;5087569;28;20035;-54
2021/07/06 05:43:24;;;;;;;1.45;0.80;;;18.30;60.70;;;;;;5088548;28;20398;-56
2021/07/06 05:45:52;;;;;;;1.15;0.60;;;18.30;60.90;;;;;;5085726;28;20036;-57
2021/07/06 05:48:20;;;;;;;1.83;0.93;;;18.20;62.90;;;;;;5088313;28;20051;-56
2021/07/06 05:50:48;;;;;;;1.42;0.70;;;18.20;62.80;;;;;;5087649;28;20127;-54
2021/07/06 05:53:15;;;;;;;1.98;1.23;;;18.10;63.70;;;;;;5086601;28;20028;-56
2021/07/06 05:55:43;;;;;;;9.98;2.20;;;18.00;61.10;;;;;;5084591;28;20039;-56
2021/07/06 05:58:11;;;;;;;1.50;0.80;;;17.90;62.70;;;;;;5084957;28;20075;-53
2021/07/06 06:00:39;;;;;;;3.67;1.25;;;17.80;64.00;;;;;;5087781;28;20089;-55
2021/07/06 06:03:10;;;;;;;5.10;1.48;;;17.70;65.10;;;;;;5088151;28;20088;-54
2021/07/06 06:05:38;;;;;;;3.83;1.00;;;17.70;62.20;;;;;;5083627;28;20043;-53
2021/07/06 06:08:06;;;;;;;2.92;0.80;;;17.60;62.40;;;;;;5088091;28;20374;-57
2021/07/06 06:10:34;;;;;;;2.30;0.60;;;17.50;63.10;;;;;;5085833;28;20039;-55
2021/07/06 06:13:02;;;;;;;1.70;0.80;;;17.50;65.20;;;;;;5085965;28;20281;-57
2021/07/06 06:15:29;;;;;;;1.95;0.90;;;17.40;64.80;;;;;;5082522;28;20087;-56
2021/07/06 06:17:57;;;;;;;1.67;0.85;;;17.30;63.30;;;;;;5087628;28;20062;-54
2021/07/06 06:20:24;;;;;;;1.60;0.90;;;17.20;66.60;;;;;;5085362;28;20023;-49
2021/07/06 06:22:51;;;;;;;1.23;0.90;;;17.20;66.10;;;;;;5087417;28;20040;-53
2021/07/06 06:25:19;;;;;;;1.45;0.85;;;17.20;63.40;;;;;;5083212;28;20032;-59
2021/07/06 06:27:46;;;;;;;2.47;0.88;;;17.10;66.70;;;;;;5087895;28;20048;-54
2021/07/06 06:30:14;;;;;;;0.88;0.68;;;17.10;65.90;;;;;;5086816;28;20032;-55
2021/07/06 06:32:42;;;;;;;1.17;0.70;;;17.00;66.20;;;;;;5087722;28;20043;-54
2021/07/06 06:35:10;;;;;;;0.95;0.80;;;17.00;66.90;;;;;;5082826;28;20437;-54
2021/07/06 06:37:38;;;;;;;0.68;0.60;;;16.90;67.30;;;;;;5087158;28;20016;-57
2021/07/06 06:40:08;;;;;;;2.55;0.75;;;16.90;67.70;;;;;;5086593;28;20490;-53
2021/07/06 06:42:36;;;;;;;1.83;1.00;;;16.90;67.40;;;;;;5085185;28;20042;-58
2021/07/06 06:45:08;;;;;;;5.88;0.98;;;16.80;67.30;;;;;;5081763;28;20446;-53
2021/07/06 06:47:37;;;;;;;0.90;0.63;;;16.80;68.10;;;;;;5087332;28;20027;-52
2021/07/06 06:50:09;;;;;;;6.45;0.95;;;16.70;68.10;;;;;;5086460;28;20104;-55
2021/07/06 06:52:36;;;;;;;6.07;1.55;;;16.70;68.50;;;;;;5087543;28;20107;-52
2021/07/06 06:55:06;;;;;;;1.05;0.60;;;16.70;68.50;;;;;;5081995;28;20035;-57
2021/07/06 06:57:33;;;;;;;5.07;1.15;;;16.60;68.60;;;;;;5086702;28;20028;-58
2021/07/06 07:00:04;;;;;;;0.93;0.60;;;16.60;68.60;;;;;;5086435;28;20478;-60
2021/07/06 07:02:32;;;;;;;1.08;0.95;;;16.50;69.80;;;;;;5087634;28;20155;-57
2021/07/06 07:04:59;;;;;;;1.92;0.80;;;16.50;70.10;;;;;;5080625;28;20114;-54
2021/07/06 07:07:30;;;;;;;2.35;1.05;;;16.50;69.50;;;;;;5087314;28;20032;-54
2021/07/06 07:09:57;;;;;;;2.90;0.63;;;16.40;70.10;;;;;;5086587;28;20161;-56
2021/07/06 07:12:25;;;;;;;1.67;0.68;;;16.40;70.50;;;;;;5087339;28;20115;-56
2021/07/06 07:14:52;;;;;;;3.60;0.88;;;16.40;70.40;;;;;;5081779;28;20063;-58
2021/07/06 07:17:22;;;;;;;1.00;0.75;;;16.40;70.00;;;;;;5087248;28;20099;-51
2021/07/06 07:19:49;;;;;;;4.22;1.08;;;16.40;70.40;;;;;;5085606;28;20036;-59
2021/07/06 07:22:17;;;;;;;3.08;0.82;;;16.30;70.30;;;;;;5087447;28;20024;-56
2021/07/06 07:24:44;;;;;;;1.67;0.80;;;16.30;70.20;;;;;;5082001;28;20146;-53
2021/07/06 07:27:12;;;;;;;3.17;1.48;;;16.30;70.90;;;;;;5087051;28;20082;-55
2021/07/06 07:29:39;;;;;;;1.60;0.70;;;16.30;70.50;;;;;;5086860;28;20059;-54
2021/07/06 07:32:07;;;;;;;1.83;0.73;;;16.30;71.00;;;;;;5087411;28;20178;-56
2021/07/06 07:34:35;;;;;;;2.75;1.10;;;16.20;71.20;;;;;;5082595;28;20032;-59
2021/07/06 07:37:04;;;;;;;2.58;1.17;;;16.20;70.70;;;;;;5087156;28;20059;-55
2021/07/06 07:39:33;;;;;;;9.27;1.02;;;16.20;70.50;;;;;;5086505;28;20044;-53
2021/07/06 07:42:03;;;;;;;2.30;0.80;;;16.20;71.20;;;;;;5087337;28;20498;-56
2021/07/06 07:44:31;;;;;;;3.70;1.30;;;16.10;71.20;;;;;;5085119;28;20051;-57
2021/07/06 07:46:59;;;;;;;1.08;0.60;;;16.10;71.30;;;;;;5088409;28;20024;-53
2021/07/06 07:49:27;;;;;;;1.92;1.10;;;16.00;71.60;;;;;;5088282;28;20056;-57
2021/07/06 07:51:55;;;;;;;1.95;0.90;;;16.00;71.50;;;;;;5088209;28;20028;-54
2021/07/06 07:54:25;;;;;;;0.85;0.60;;;15.90;71.60;;;;;;5088599;28;20107;-54
2021/07/06 07:56:53;;;;;;;1.95;1.75;;;15.90;71.90;;;;;;5088245;28;20028;-57
2021/07/06 07:59:20;;;;;;;2.50;1.60;;;15.90;71.70;;;;;;5087854;28;20093;-55
2021/07/06 08:01:47;;;;;;;3.35;2.13;;;15.80;71.90;;;;;;5086720;28;20387;-56
2021/07/06 08:04:15;;;;;;;5.20;1.65;;;15.80;71.80;;;;;;5088040;28;20031;-59
2021/07/06 08:06:42;;;;;;;8.07;1.85;;;15.80;72.20;;;;;;5087460;28;20075;-57
2021/07/06 08:09:09;;;;;;;3.08;1.50;;;15.80;72.00;;;;;;5087989;28;20112;-57
2021/07/06 08:11:37;;;;;;;2.88;1.27;;;15.70;72.30;;;;;;5092740;28;20102;-58
2021/07/06 08:14:04;;;;;;;1.73;1.02;;;15.70;72.40;;;;;;5091648;28;20061;-55
2021/07/06 08:16:31;;;;;;;2.42;1.40;;;15.70;72.70;;;;;;5090812;28;20036;-56
2021/07/06 08:18:59;;;;;;;5.57;1.20;;;15.70;73.00;;;;;;5092403;28;20080;-58
2021/07/06 08:21:26;;;;;;;5.13;1.30;;;15.70;73.00;;;;;;5091954;28;20039;-54
2021/07/06 08:23:59;;;;;;;5.15;1.52;;;15.60;73.80;;;;;;5091360;28;20032;-54
2021/07/06 08:26:27;;;;;;;4.38;1.25;;;15.60;73.40;;;;;;5091033;28;20110;-56
2021/07/06 08:28:55;;;;;;;3.53;1.65;;;15.60;73.50;;;;;;5091088;28;20035;-59
2021/07/06 08:31:22;;;;;;;3.65;1.33;;;15.60;73.50;;;;;;5091876;28;20060;-58
2021/07/06 08:33:49;;;;;;;3.22;1.63;;;15.50;73.50;;;;;;5091516;28;20491;-56
2021/07/06 08:36:17;;;;;;;1.88;1.40;;;15.50;73.50;;;;;;5090964;28;20486;-56
2021/07/06 08:38:44;;;;;;;1.40;1.08;;;15.50;73.30;;;;;;5091318;28;20089;-57
2021/07/06 08:41:13;;;;;;;9.00;1.45;;;15.50;74.30;;;;;;5082984;28;20098;-57
2021/07/06 08:43:41;;;;;;;2.97;1.45;;;15.50;74.10;;;;;;5085307;28;20451;-57
2021/07/06 08:46:09;;;;;;;3.72;1.50;;;15.50;74.40;;;;;;5089991;28;20080;-57
2021/07/06 08:48:37;;;;;;;5.47;1.30;;;15.50;74.30;;;;;;5085793;28;20085;-52
2021/07/06 08:51:05;;;;;;;4.18;1.80;;;15.50;74.50;;;;;;5086880;28;20024;-56
2021/07/06 08:53:32;;;;;;;4.45;1.50;;;15.50;74.10;;;;;;5087558;28;20024;-53
2021/07/06 08:55:59;;;;;;;4.20;1.85;;;15.50;74.00;;;;;;5087354;28;20059;-49
2021/07/06 08:58:28;;;;;;;3.60;1.80;;;15.50;73.80;;;;;;5087628;28;20115;-59
2021/07/06 09:00:55;;;;;;;2.97;1.60;;;15.50;73.80;;;;;;5088287;28;20103;-54
2021/07/06 09:03:22;;;;;;;4.75;1.63;;;15.50;73.90;;;;;;5084430;28;20047;-54
2021/07/06 09:06:10;;;;;;;3.92;1.90;;;15.50;73.90;;;;;;5081755;28;20044;-56
2021/07/06 09:08:37;;;;;;;6.25;1.95;;;15.50;73.70;;;;;;5087294;28;20020;-63
2021/07/06 09:11:15;;;;;;;4.03;2.08;;;15.50;73.70;;;;;;5086041;28;20028;-55
2021/07/06 09:13:42;;;;;;;5.85;1.95;;;15.50;74.30;;;;;;5080598;28;20028;-59
2021/07/06 09:16:19;;;;;;;2.90;2.15;;;15.50;73.70;;;;;;5088982;28;20749;-54
2021/07/06 09:18:47;;;;;;;5.53;2.50;;;15.50;73.90;;;;;;5089346;28;20450;-51
2021/07/06 09:21:15;;;;;;;2.63;1.80;;;15.50;73.80;;;;;;5088502;28;20467;-53
2021/07/06 09:23:54;;;;;;;2.85;1.73;;;15.50;73.70;;;;;;5084761;28;20044;-51
2021/07/06 09:26:25;;;;;;;5.75;2.10;;;15.40;73.60;;;;;;5087817;28;20040;-57
2021/07/06 09:28:55;;;;;;;6.60;2.63;;;15.40;73.70;;;;;;5049274;28;20049;-57
2021/07/06 09:31:25;;;;;;;7.00;2.03;;;15.40;74.00;;;;;;5047276;28;20761;-55
2021/07/06 09:33:57;;;;;;;4.70;1.83;;;15.40;74.10;;;;;;5042314;28;20494;-56
2021/07/06 09:36:32;;;;;;;3.83;2.25;;;15.40;74.20;;;;;;5048643;28;20149;-55
2021/07/06 09:39:02;;;;;;;4.70;2.50;;;15.40;74.20;;;;;;5049206;28;20037;-55
2021/07/06 09:41:30;;;;;;;5.57;3.72;;;15.40;74.30;;;;;;5048382;28;20040;-60
2021/07/06 09:44:15;;;;;;;9.02;3.92;;;15.30;74.30;;;;;;5043821;28;20041;-55
2021/07/06 09:46:57;;;;;;;8.73;4.97;;;15.30;74.50;;;;;;5048773;28;20116;-55
2021/07/06 09:49:30;;;;;;;12.38;5.20;;;15.40;74.50;;;;;;5048774;28;20045;-56
2021/07/06 09:52:08;;;;;;;15.75;5.32;;;15.40;74.50;;;;;;5047650;28;20098;-57
2021/07/06 09:54:38;;;;;;;13.25;6.05;;;15.40;74.50;;;;;;5044428;28;20033;-53
2021/07/06 09:57:14;;;;;;;12.40;6.13;;;15.40;74.80;;;;;;5048562;28;20120;-51
2021/07/06 10:00:10;;;;;;;14.43;6.93;;;15.40;74.90;;;;;;5047600;28;20518;-52
2021/07/06 10:02:40;;;;;;;11.95;7.47;;;15.40;75.20;;;;;;5047888;28;20028;-56
2021/07/06 10:05:17;;;;;;;14.05;7.35;;;15.40;75.40;;;;;;5043121;28;20051;-58
2021/07/06 10:07:45;;;;;;;11.90;7.10;;;15.40;75.50;;;;;;5046757;28;20471;-60
2021/07/06 10:10:14;;;;;;;15.40;7.65;;;15.40;75.60;;;;;;5047919;28;20032;-56
2021/07/06 10:12:45;;;;;;;15.60;7.50;;;15.40;75.60;;;;;;5048244;28;20491;-53
2021/07/06 10:15:14;;;;;;;14.68;7.63;;;15.40;75.60;;;;;;5042974;28;20041;-54
2021/07/06 10:17:42;;;;;;;13.30;7.00;;;15.40;75.60;;;;;;5048247;28;20032;-55
2021/07/06 10:20:11;;;;;;;19.20;8.90;;;15.30;75.70;;;;;;5048193;28;20114;-56
2021/07/06 10:22:40;;;;;;;21.23;8.43;;;15.30;75.70;;;;;;5045731;28;20163;-61
2021/07/06 10:25:10;;;;;;;16.63;8.65;;;15.20;76.10;;;;;;5042451;28;20544;-53
2021/07/06 10:27:50;;;;;;;15.88;8.23;;;15.30;76.30;;;;;;5067534;28;21268;-61
2021/07/06 10:30:20;;;;;;;17.33;8.35;;;15.20;76.40;;;;;;5087892;28;20489;-57
2021/07/06 10:32:49;;;;;;;15.02;7.97;;;15.20;76.30;;;;;;5085388;28;20024;-58
2021/07/06 10:35:37;;;;;;;11.80;7.45;;;15.20;76.80;;;;;;5089328;28;20082;-57
2021/07/06 10:38:29;;;;;;;19.17;8.27;;;15.20;76.30;;;;;;5089419;28;20401;-60
2021/07/06 10:41:07;;;;;;;20.27;7.60;;;15.20;76.40;;;;;;5089524;28;20450;-58
2021/07/06 10:43:43;;;;;;;15.73;8.00;;;15.20;76.40;;;;;;5089497;28;20291;-60
2021/07/06 10:46:25;;;;;;;12.93;6.70;;;15.20;76.30;;;;;;5089263;28;20032;-59
2021/07/06 10:49:13;;;;;;;15.80;7.97;;;15.10;76.30;;;;;;5089817;28;20024;-60
2021/07/06 10:51:41;;;;;;;14.43;8.23;;;15.10;76.30;;;;;;5082369;28;20039;-55
2021/07/06 10:54:08;;;;;;;20.67;8.68;;;15.10;76.70;;;;;;5087996;28;20059;-56
2021/07/06 10:56:47;;;;;;;14.55;7.43;;;15.10;76.50;;;;;;5089923;28;20495;-54
2021/07/06 10:59:35;;;;;;;15.50;7.03;;;15.00;76.70;;;;;;5088104;28;20040;-62
2021/07/06 11:02:07;;;;;;;14.48;7.47;;;15.10;76.50;;;;;;5084945;28;20168;-58
2021/07/06 11:04:45;;;;;;;16.45;7.88;;;15.00;76.50;;;;;;5087944;28;20536;-60
2021/07/06 11:07:15;;;;;;;13.65;7.45;;;15.00;76.30;;;;;;5085897;28;20525;-60
2021/07/06 11:09:42;;;;;;;12.18;7.35;;;15.00;76.30;;;;;;5088438;28;20364;-60
2021/07/06 11:12:22;;;;;;;13.95;7.50;;;15.00;76.40;;;;;;5082961;28;20060;-55
2021/07/06 11:14:54;;;;;;;11.73;7.32;;;14.90;76.30;;;;;;5087716;28;20032;-56
2021/07/06 11:17:41;;;;;;;17.73;7.85;;;14.90;76.40;;;;;;5087676;28;20040;-60
2021/07/06 11:20:09;;;;;;;15.80;7.88;;;14.90;76.50;;;;;;5086811;28;20502;-50
2021/07/06 11:22:56;;;;;;;12.52;7.03;;;14.90;76.60;;;;;;5083118;28;20032;-56
2021/07/06 11:25:38;;;;;;;12.90;7.07;;;14.90;76.60;;;;;;5087113;28;20036;-64
2021/07/06 11:28:19;;;;;;;12.80;7.38;;;14.80;76.50;;;;;;5087529;28;20052;-49
2021/07/06 11:30:55;;;;;;;13.35;7.13;;;14.80;76.60;;;;;;5087337;28;20505;-51
2021/07/06 11:33:37;;;;;;;14.15;7.30;;;14.80;76.50;;;;;;5086583;28;20786;-58
2021/07/06 11:36:17;;;;;;;12.70;7.33;;;14.80;76.60;;;;;;5088206;28;20043;-51
2021/07/06 11:38:47;;;;;;;11.82;7.38;;;14.80;76.50;;;;;;5087970;28;20119;-51
2021/07/06 11:41:22;;;;;;;18.13;8.60;;;14.80;76.50;;;;;;5079360;28;20052;-56
2021/07/06 11:43:49;;;;;;;13.77;8.02;;;14.70;76.40;;;;;;5086216;28;20059;-52
2021/07/06 11:46:26;;;;;;;12.18;7.25;;;14.70;76.50;;;;;;5090990;28;20054;-61
2021/07/06 11:48:54;;;;;;;16.02;8.25;;;14.70;76.40;;;;;;5091664;28;20016;-56
2021/07/06 11:51:26;;;;;;;12.43;8.05;;;14.70;76.40;;;;;;5087126;28;20546;-56
2021/07/06 11:54:01;;;;;;;12.27;7.57;;;14.70;76.50;;;;;;5091191;28;20028;-56
2021/07/06 11:56:31;;;;;;;11.15;8.02;;;14.70;76.50;;;;;;5091931;28;20116;-53
2021/07/06 11:59:00;;;;;;;11.82;7.00;;;14.70;76.40;;;;;;5093555;28;20038;-57
2021/07/06 12:01:28;;;;;;;11.70;7.30;;;14.60;76.40;;;;;;5093317;28;20493;-56
2021/07/06 12:03:55;;;;;;;9.30;6.55;;;14.60;76.40;;;;;;5093002;28;20039;-55
2021/07/06 12:06:23;;;;;;;11.68;7.38;;;14.60;76.50;;;;;;5093149;28;20036;-55
2021/07/06 12:08:53;;;;;;;11.55;6.75;;;14.60;76.40;;;;;;5093299;28;20404;-57
2021/07/06 12:11:23;;;;;;;10.57;6.88;;;14.60;76.50;;;;;;5093464;28;20039;-54
2021/07/06 12:14:02;;;;;;;11.80;6.68;;;14.50;76.50;;;;;;5093533;28;20028;-54
2021/07/06 12:16:37;;;;;;;9.55;6.32;;;14.50;76.50;;;;;;5093208;28;20030;-53
2021/07/06 12:19:11;;;;;;;11.18;6.35;;;14.50;76.60;;;;;;5108479;28;20031;-57
2021/07/06 12:21:49;;;;;;;10.60;6.90;;;14.50;76.70;;;;;;5113519;28;20028;-52
2021/07/06 12:24:27;;;;;;;12.73;7.47;;;14.40;76.80;;;;;;5113565;27;20375;-56
2021/07/06 12:26:56;;;;;;;9.30;6.10;;;14.30;76.90;;;;;;5113092;28;20471;-56
2021/07/06 12:29:31;;;;;;;11.45;6.15;;;14.30;77.00;;;;;;5113251;28;20401;-59
2021/07/06 12:31:59;;;;;;;11.30;6.85;;;14.30;77.10;;;;;;5112794;28;20023;-53
2021/07/06 12:34:40;;;;;;;12.95;7.75;;;14.30;77.20;;;;;;5112993;28;20107;-53
2021/07/06 12:37:11;;;;;;;13.10;6.53;;;14.20;77.30;;;;;;5112506;28;20062;-58
2021/07/06 12:39:41;;;;;;;9.88;7.30;;;14.20;77.50;;;;;;5112644;28;20022;-54
2021/07/06 12:42:11;;;;;;;9.65;7.10;;;14.20;77.50;;;;;;5112471;28;20464;-56
2021/07/06 12:44:51;;;;;;;10.70;6.43;;;14.20;77.60;;;;;;5112771;28;20028;-54
2021/07/06 12:47:26;;;;;;;8.50;6.28;;;14.10;77.60;;;;;;5112987;28;20109;-54
2021/07/06 12:49:58;;;;;;;9.98;6.55;;;14.10;77.70;;;;;;5112496;28;20063;-56
2021/07/06 12:52:38;;;;;;;10.55;6.53;;;14.10;77.90;;;;;;5112506;28;20081;-53
2021/07/06 12:55:11;;;;;;;10.55;6.05;;;14.10;77.90;;;;;;5112306;28;20108;-54
2021/07/06 12:57:41;;;;;;;10.90;5.93;;;14.10;78.00;;;;;;5111691;28;20112;-53
2021/07/06 13:00:18;;;;;;;11.07;5.70;;;14.00;77.90;;;;;;5112475;28;20034;-54